createdAt,value
2023-05-11T00:00:23.052Z,658.00
2023-05-11T00:00:53.141Z,657.00
2023-05-11T00:01:23.237Z,658.00
2023-05-11T00:01:53.319Z,658.00
2023-05-11T00:02:23.446Z,660.00
2023-05-11T00:02:53.569Z,660.00
2023-05-11T00:03:23.750Z,661.00
2023-05-11T00:03:53.701Z,664.00
2023-05-11T00:04:23.635Z,660.00
2023-05-11T00:04:53.700Z,660.00
2023-05-11T00:05:23.789Z,653.00
2023-05-11T00:05:53.880Z,661.00
2023-05-11T00:06:23.972Z,663.00
2023-05-11T00:06:54.048Z,665.00
2023-05-11T00:07:24.135Z,660.00
2023-05-11T00:07:54.227Z,653.00
2023-05-11T00:08:24.332Z,655.00
2023-05-11T00:08:54.413Z,654.00
2023-05-11T00:09:24.510Z,654.00
2023-05-11T00:09:54.582Z,652.00
2023-05-11T00:10:24.669Z,652.00
2023-05-11T00:10:54.748Z,652.00
2023-05-11T00:11:24.819Z,653.00
2023-05-11T00:11:54.920Z,652.00
2023-05-11T00:12:25.027Z,653.00
2023-05-11T00:12:55.092Z,656.00
2023-05-11T00:13:25.175Z,654.00
2023-05-11T00:13:55.253Z,650.00
2023-05-11T00:14:25.356Z,652.00
2023-05-11T00:14:55.460Z,653.00
2023-05-11T00:15:25.516Z,652.00
2023-05-11T00:15:55.667Z,653.00
2023-05-11T00:16:25.817Z,651.00
2023-05-11T00:16:55.813Z,653.00
2023-05-11T00:17:25.882Z,654.00
2023-05-11T00:17:55.967Z,656.00
2023-05-11T00:18:26.110Z,656.00
2023-05-11T00:18:56.117Z,657.00
2023-05-11T00:19:26.116Z,650.00
2023-05-11T00:19:56.171Z,653.00
2023-05-11T00:20:26.240Z,652.00
2023-05-11T00:20:56.273Z,656.00
2023-05-11T00:21:26.292Z,653.00
2023-05-11T00:21:56.332Z,657.00
2023-05-11T00:22:26.396Z,656.00
2023-05-11T00:22:56.425Z,658.00
2023-05-11T00:23:26.465Z,659.00
2023-05-11T00:23:56.515Z,660.00
2023-05-11T00:24:26.568Z,661.00
2023-05-11T00:24:56.607Z,661.00
2023-05-11T00:25:26.648Z,659.00
2023-05-11T00:25:56.692Z,657.00
2023-05-11T00:26:26.778Z,655.00
2023-05-11T00:26:56.833Z,655.00
2023-05-11T00:27:26.917Z,655.00
2023-05-11T00:27:56.998Z,655.00
2023-05-11T00:28:27.094Z,653.00
2023-05-11T00:28:57.182Z,651.00
2023-05-11T00:29:27.261Z,651.00
2023-05-11T00:29:57.357Z,651.00
2023-05-11T00:30:27.465Z,652.00
2023-05-11T00:30:57.616Z,653.00
2023-05-11T00:31:30.163Z,651.00
2023-05-11T00:31:57.601Z,651.00
2023-05-11T00:32:27.650Z,651.00
2023-05-11T00:32:57.668Z,651.00
2023-05-11T00:33:27.736Z,651.00
2023-05-11T00:33:57.818Z,651.00
2023-05-11T00:34:27.920Z,649.00
2023-05-11T00:34:58.013Z,647.00
2023-05-11T00:35:28.082Z,647.00
2023-05-11T00:35:58.181Z,646.00
2023-05-11T00:36:28.275Z,647.00
2023-05-11T00:36:58.360Z,647.00
2023-05-11T00:37:28.445Z,648.00
2023-05-11T00:37:58.523Z,646.00
2023-05-11T00:38:28.611Z,648.00
2023-05-11T00:38:58.706Z,648.00
2023-05-11T00:39:28.775Z,648.00
2023-05-11T00:39:58.865Z,644.00
2023-05-11T00:40:28.949Z,643.00
2023-05-11T00:40:59.047Z,644.00
2023-05-11T00:41:29.111Z,645.00
2023-05-11T00:41:59.198Z,644.00
2023-05-11T00:42:29.278Z,643.00
2023-05-11T00:42:59.376Z,644.00
2023-05-11T00:43:29.469Z,645.00
2023-05-11T00:43:59.537Z,645.00
2023-05-11T00:44:29.623Z,647.00
2023-05-11T00:44:59.731Z,647.00
2023-05-11T00:45:29.845Z,647.00
2023-05-11T00:45:59.899Z,647.00
2023-05-11T00:46:29.999Z,645.00
2023-05-11T00:47:00.215Z,645.00
2023-05-11T00:47:30.228Z,644.00
2023-05-11T00:48:00.359Z,644.00
2023-05-11T00:48:30.277Z,643.00
2023-05-11T00:49:00.366Z,642.00
2023-05-11T00:49:30.447Z,644.00
2023-05-11T00:50:00.584Z,645.00
2023-05-11T00:50:30.548Z,646.00
2023-05-11T00:51:00.642Z,646.00
2023-05-11T00:51:30.697Z,646.00
2023-05-11T00:52:00.787Z,646.00
2023-05-11T00:52:30.893Z,648.00
2023-05-11T00:53:00.986Z,647.00
2023-05-11T00:53:31.035Z,646.00
2023-05-11T00:54:01.107Z,646.00
2023-05-11T00:54:31.214Z,646.00
2023-05-11T00:55:01.299Z,646.00
2023-05-11T00:55:31.375Z,647.00
2023-05-11T00:56:01.464Z,646.00
2023-05-11T00:56:31.544Z,646.00
2023-05-11T00:57:01.634Z,646.00
2023-05-11T00:57:31.708Z,646.00
2023-05-11T00:58:01.808Z,646.00
2023-05-11T00:58:31.897Z,646.00
2023-05-11T00:59:02.018Z,644.00
2023-05-11T00:59:32.091Z,642.00
2023-05-11T01:00:02.177Z,642.00
2023-05-11T01:00:32.288Z,642.00
2023-05-11T01:01:02.466Z,641.00
2023-05-11T01:01:32.359Z,641.00
2023-05-11T01:02:02.529Z,642.00
2023-05-11T01:02:32.693Z,643.00
2023-05-11T01:03:02.607Z,644.00
2023-05-11T01:03:32.574Z,645.00
2023-05-11T01:04:02.669Z,648.00
2023-05-11T01:04:32.760Z,644.00
2023-05-11T01:05:02.848Z,644.00
2023-05-11T01:05:32.929Z,646.00
2023-05-11T01:06:02.997Z,641.00
2023-05-11T01:06:33.119Z,640.00
2023-05-11T01:07:03.093Z,639.00
2023-05-11T01:07:33.159Z,641.00
2023-05-11T01:08:03.252Z,643.00
2023-05-11T01:08:33.356Z,640.00
2023-05-11T01:09:03.446Z,640.00
2023-05-11T01:09:33.539Z,639.00
2023-05-11T01:10:03.621Z,639.00
2023-05-11T01:10:33.716Z,638.00
2023-05-11T01:11:03.848Z,638.00
2023-05-11T01:11:33.862Z,629.00
2023-05-11T01:12:03.852Z,632.00
2023-05-11T01:12:33.943Z,637.00
2023-05-11T01:13:04.038Z,638.00
2023-05-11T01:13:34.114Z,636.00
2023-05-11T01:14:04.204Z,637.00
2023-05-11T01:14:34.300Z,638.00
2023-05-11T01:15:04.386Z,640.00
2023-05-11T01:15:34.469Z,637.00
2023-05-11T01:16:04.547Z,635.00
2023-05-11T01:16:34.677Z,637.00
2023-05-11T01:17:04.764Z,636.00
2023-05-11T01:17:34.830Z,633.00
2023-05-11T01:18:04.899Z,635.00
2023-05-11T01:18:34.951Z,634.00
2023-05-11T01:19:05.125Z,634.00
2023-05-11T01:19:35.114Z,633.00
2023-05-11T01:20:05.148Z,633.00
2023-05-11T01:20:35.197Z,633.00
2023-05-11T01:21:05.239Z,632.00
2023-05-11T01:21:35.276Z,628.00
2023-05-11T01:22:05.339Z,630.00
2023-05-11T01:22:35.380Z,630.00
2023-05-11T01:23:05.423Z,630.00
2023-05-11T01:23:35.474Z,629.00
2023-05-11T01:24:05.511Z,628.00
2023-05-11T01:24:35.555Z,629.00
2023-05-11T01:25:05.611Z,632.00
2023-05-11T01:25:35.652Z,633.00
2023-05-11T01:26:05.697Z,629.00
2023-05-11T01:26:35.737Z,632.00
2023-05-11T01:27:05.842Z,628.00
2023-05-11T01:27:35.932Z,629.00
2023-05-11T01:28:06.012Z,627.00
2023-05-11T01:28:36.097Z,627.00
2023-05-11T01:29:06.185Z,625.00
2023-05-11T01:29:36.278Z,626.00
2023-05-11T01:30:06.378Z,628.00
2023-05-11T01:30:36.470Z,633.00
2023-05-11T01:31:06.547Z,633.00
2023-05-11T01:31:36.722Z,632.00
2023-05-11T01:32:06.897Z,631.00
2023-05-11T01:32:37.224Z,629.00
2023-05-11T01:33:06.736Z,628.00
2023-05-11T01:33:36.752Z,630.00
2023-05-11T01:34:06.838Z,633.00
2023-05-11T01:34:36.912Z,632.00
2023-05-11T01:35:06.998Z,635.00
2023-05-11T01:35:37.084Z,633.00
2023-05-11T01:36:07.186Z,633.00
2023-05-11T01:36:37.268Z,633.00
2023-05-11T01:37:07.389Z,629.00
2023-05-11T01:37:37.473Z,630.00
2023-05-11T01:38:07.559Z,630.00
2023-05-11T01:38:37.661Z,625.00
2023-05-11T01:39:07.726Z,626.00
2023-05-11T01:39:37.824Z,627.00
2023-05-11T01:40:07.899Z,627.00
2023-05-11T01:40:37.985Z,629.00
2023-05-11T01:41:08.086Z,631.00
2023-05-11T01:41:38.173Z,628.00
2023-05-11T01:42:08.253Z,631.00
2023-05-11T01:42:38.333Z,631.00
2023-05-11T01:43:08.419Z,633.00
2023-05-11T01:43:38.513Z,632.00
2023-05-11T01:44:08.604Z,631.00
2023-05-11T01:44:38.680Z,630.00
2023-05-11T01:45:08.777Z,627.00
2023-05-11T01:45:38.898Z,627.00
2023-05-11T01:46:08.910Z,626.00
2023-05-11T01:46:39.138Z,629.00
2023-05-11T01:47:09.006Z,631.00
2023-05-11T01:47:39.122Z,632.00
2023-05-11T01:48:09.205Z,626.00
2023-05-11T01:48:39.272Z,626.00
2023-05-11T01:49:09.357Z,625.00
2023-05-11T01:49:39.459Z,629.00
2023-05-11T01:50:09.539Z,626.00
2023-05-11T01:50:39.627Z,630.00
2023-05-11T01:51:09.713Z,632.00
2023-05-11T01:51:39.809Z,631.00
2023-05-11T01:52:09.934Z,633.00
2023-05-11T01:52:39.926Z,631.00
2023-05-11T01:53:09.996Z,633.00
2023-05-11T01:53:40.096Z,634.00
2023-05-11T01:54:10.166Z,632.00
2023-05-11T01:54:40.261Z,631.00
2023-05-11T01:55:10.353Z,633.00
2023-05-11T01:55:40.402Z,635.00
2023-05-11T01:56:10.498Z,636.00
2023-05-11T01:56:40.588Z,633.00
2023-05-11T01:57:10.654Z,630.00
2023-05-11T01:57:40.746Z,631.00
2023-05-11T01:58:10.844Z,631.00
2023-05-11T01:58:40.899Z,629.00
2023-05-11T01:59:10.980Z,630.00
2023-05-11T01:59:41.095Z,630.00
2023-05-11T02:00:11.167Z,629.00
2023-05-11T02:00:41.250Z,629.00
2023-05-11T02:01:11.393Z,630.00
2023-05-11T02:01:41.513Z,627.00
2023-05-11T02:02:11.573Z,630.00
2023-05-11T02:02:41.671Z,630.00
2023-05-11T02:03:11.877Z,628.00
2023-05-11T02:03:41.875Z,628.00
2023-05-11T02:04:11.926Z,629.00
2023-05-11T02:04:41.933Z,628.00
2023-05-11T02:05:11.990Z,630.00
2023-05-11T02:05:42.085Z,628.00
2023-05-11T02:06:12.162Z,629.00
2023-05-11T02:06:42.241Z,629.00
2023-05-11T02:07:12.236Z,630.00
2023-05-11T02:07:42.329Z,633.00
2023-05-11T02:08:12.406Z,630.00
2023-05-11T02:08:42.494Z,629.00
2023-05-11T02:09:12.588Z,628.00
2023-05-11T02:09:42.686Z,628.00
2023-05-11T02:10:12.766Z,627.00
2023-05-11T02:10:42.850Z,626.00
2023-05-11T02:11:12.943Z,623.00
2023-05-11T02:11:43.013Z,625.00
2023-05-11T02:12:13.089Z,626.00
2023-05-11T02:12:43.171Z,622.00
2023-05-11T02:13:13.262Z,624.00
2023-05-11T02:13:43.344Z,624.00
2023-05-11T02:14:13.429Z,624.00
2023-05-11T02:14:43.505Z,624.00
2023-05-11T02:15:13.595Z,623.00
2023-05-11T02:15:43.721Z,624.00
2023-05-11T02:16:13.847Z,624.00
2023-05-11T02:16:43.829Z,624.00
2023-05-11T02:17:13.860Z,623.00
2023-05-11T02:17:43.977Z,624.00
2023-05-11T02:18:13.941Z,626.00
2023-05-11T02:18:44.016Z,625.00
2023-05-11T02:19:14.090Z,626.00
2023-05-11T02:19:44.134Z,623.00
2023-05-11T02:20:14.165Z,624.00
2023-05-11T02:20:44.209Z,622.00
2023-05-11T02:21:14.267Z,623.00
2023-05-11T02:21:44.299Z,623.00
2023-05-11T02:22:14.333Z,621.00
2023-05-11T02:22:44.376Z,620.00
2023-05-11T02:23:14.436Z,618.00
2023-05-11T02:23:44.476Z,619.00
2023-05-11T02:24:14.519Z,619.00
2023-05-11T02:24:44.553Z,620.00
2023-05-11T02:25:14.603Z,620.00
2023-05-11T02:25:44.652Z,622.00
2023-05-11T02:26:14.685Z,619.00
2023-05-11T02:26:44.723Z,618.00
2023-05-11T02:27:14.827Z,615.00
2023-05-11T02:27:44.916Z,617.00
2023-05-11T02:28:15.005Z,616.00
2023-05-11T02:28:45.099Z,612.00
2023-05-11T02:29:15.099Z,615.00
2023-05-11T02:29:45.186Z,619.00
2023-05-11T02:30:15.261Z,615.00
2023-05-11T02:30:45.336Z,618.00
2023-05-11T02:31:15.468Z,614.00
2023-05-11T02:31:45.473Z,613.00
2023-05-11T02:32:15.570Z,615.00
2023-05-11T02:32:45.704Z,612.00
2023-05-11T02:33:15.678Z,614.00
2023-05-11T02:33:45.771Z,612.00
2023-05-11T02:34:15.846Z,613.00
2023-05-11T02:34:45.929Z,612.00
2023-05-11T02:35:16.036Z,611.00
2023-05-11T02:35:46.020Z,613.00
2023-05-11T02:36:16.106Z,612.00
2023-05-11T02:36:46.193Z,614.00
2023-05-11T02:37:16.283Z,610.00
2023-05-11T02:37:46.377Z,609.00
2023-05-11T02:38:16.461Z,608.00
2023-05-11T02:38:46.531Z,608.00
2023-05-11T02:39:16.620Z,613.00
2023-05-11T02:39:46.698Z,610.00
2023-05-11T02:40:17.091Z,610.00
2023-05-11T02:40:46.820Z,607.00
2023-05-11T02:41:16.904Z,607.00
2023-05-11T02:41:46.987Z,611.00
2023-05-11T02:42:17.076Z,613.00
2023-05-11T02:42:47.146Z,610.00
2023-05-11T02:43:17.233Z,613.00
2023-05-11T02:43:47.315Z,617.00
2023-05-11T02:44:17.399Z,614.00
2023-05-11T02:44:47.476Z,614.00
2023-05-11T02:45:17.511Z,614.00
2023-05-11T02:45:47.592Z,618.00
2023-05-11T02:46:17.744Z,616.00
2023-05-11T02:46:47.771Z,614.00
2023-05-11T02:47:17.841Z,613.00
2023-05-11T02:47:47.998Z,607.00
2023-05-11T02:48:17.991Z,608.00
2023-05-11T02:48:48.086Z,612.00
2023-05-11T02:49:18.184Z,617.00
2023-05-11T02:49:48.256Z,617.00
2023-05-11T02:50:18.512Z,614.00
2023-05-11T02:50:48.354Z,612.00
2023-05-11T02:51:18.437Z,610.00
2023-05-11T02:51:48.524Z,611.00
2023-05-11T02:52:18.622Z,612.00
2023-05-11T02:52:48.691Z,609.00
2023-05-11T02:53:18.784Z,612.00
2023-05-11T02:53:48.875Z,611.00
2023-05-11T02:54:18.947Z,609.00
2023-05-11T02:54:49.036Z,613.00
2023-05-11T02:55:19.137Z,614.00
2023-05-11T02:55:49.215Z,607.00
2023-05-11T02:56:19.304Z,616.00
2023-05-11T02:56:49.382Z,615.00
2023-05-11T02:57:19.465Z,617.00
2023-05-11T02:57:49.570Z,612.00
2023-05-11T02:58:19.689Z,619.00
2023-05-11T02:58:49.765Z,616.00
2023-05-11T02:59:19.837Z,613.00
2023-05-11T02:59:49.954Z,609.00
2023-05-11T03:00:20.367Z,614.00
2023-05-11T03:00:50.150Z,613.00
2023-05-11T03:01:20.219Z,612.00
2023-05-11T03:01:50.409Z,613.00
2023-05-11T03:02:20.451Z,613.00
2023-05-11T03:02:50.496Z,614.00
2023-05-11T03:03:20.515Z,612.00
2023-05-11T03:03:50.600Z,612.00
2023-05-11T03:04:20.507Z,615.00
2023-05-11T03:04:50.607Z,616.00
2023-05-11T03:05:20.696Z,616.00
2023-05-11T03:05:50.778Z,615.00
2023-05-11T03:06:20.863Z,615.00
2023-05-11T03:06:50.957Z,616.00
2023-05-11T03:07:21.060Z,616.00
2023-05-11T03:07:51.126Z,618.00
2023-05-11T03:08:21.202Z,618.00
2023-05-11T03:08:51.299Z,620.00
2023-05-11T03:09:21.390Z,619.00
2023-05-11T03:09:51.493Z,618.00
2023-05-11T03:10:21.678Z,615.00
2023-05-11T03:10:51.629Z,614.00
2023-05-11T03:11:21.734Z,612.00
2023-05-11T03:11:51.800Z,611.00
2023-05-11T03:12:21.871Z,610.00
2023-05-11T03:12:51.955Z,611.00
2023-05-11T03:13:22.049Z,611.00
2023-05-11T03:13:52.142Z,612.00
2023-05-11T03:14:22.231Z,613.00
2023-05-11T03:14:52.311Z,613.00
2023-05-11T03:15:22.359Z,615.00
2023-05-11T03:15:52.434Z,614.00
2023-05-11T03:16:22.539Z,614.00
2023-05-11T03:16:52.649Z,615.00
2023-05-11T03:17:22.762Z,616.00
2023-05-11T03:17:52.799Z,615.00
2023-05-11T03:18:22.919Z,615.00
2023-05-11T03:18:52.932Z,616.00
2023-05-11T03:19:22.970Z,614.00
2023-05-11T03:19:53.012Z,613.00
2023-05-11T03:20:23.052Z,613.00
2023-05-11T03:20:53.096Z,612.00
2023-05-11T03:21:23.139Z,612.00
2023-05-11T03:21:53.185Z,613.00
2023-05-11T03:22:23.229Z,611.00
2023-05-11T03:22:53.264Z,611.00
2023-05-11T03:23:23.318Z,611.00
2023-05-11T03:23:53.349Z,608.00
2023-05-11T03:24:23.395Z,608.00
2023-05-11T03:24:53.448Z,608.00
2023-05-11T03:25:23.479Z,608.00
2023-05-11T03:25:53.516Z,610.00
2023-05-11T03:26:23.574Z,612.00
2023-05-11T03:26:53.633Z,612.00
2023-05-11T03:27:23.716Z,612.00
2023-05-11T03:27:53.809Z,610.00
2023-05-11T03:28:23.896Z,611.00
2023-05-11T03:28:53.980Z,610.00
2023-05-11T03:29:24.078Z,611.00
2023-05-11T03:29:54.153Z,611.00
2023-05-11T03:30:24.235Z,609.00
2023-05-11T03:30:54.330Z,610.00
2023-05-11T03:31:24.444Z,609.00
2023-05-11T03:31:54.547Z,609.00
2023-05-11T03:32:24.775Z,610.00
2023-05-11T03:32:54.795Z,611.00
2023-05-11T03:33:24.714Z,611.00
2023-05-11T03:33:54.780Z,612.00
2023-05-11T03:34:24.860Z,611.00
2023-05-11T03:34:54.910Z,608.00
2023-05-11T03:35:25.000Z,610.00
2023-05-11T03:35:55.087Z,609.00
2023-05-11T03:36:25.153Z,609.00
2023-05-11T03:36:55.253Z,608.00
2023-05-11T03:37:25.340Z,608.00
2023-05-11T03:37:55.427Z,607.00
2023-05-11T03:38:25.494Z,610.00
2023-05-11T03:38:55.579Z,608.00
2023-05-11T03:39:25.675Z,607.00
2023-05-11T03:39:55.733Z,606.00
2023-05-11T03:40:25.816Z,601.00
2023-05-11T03:40:55.901Z,601.00
2023-05-11T03:41:25.997Z,601.00
2023-05-11T03:41:56.083Z,598.00
2023-05-11T03:42:26.186Z,598.00
2023-05-11T03:42:56.255Z,600.00
2023-05-11T03:43:26.339Z,601.00
2023-05-11T03:43:56.423Z,601.00
2023-05-11T03:44:26.492Z,601.00
2023-05-11T03:44:56.584Z,603.00
2023-05-11T03:45:26.666Z,595.00
2023-05-11T03:45:56.779Z,601.00
2023-05-11T03:46:26.937Z,598.00
2023-05-11T03:46:56.820Z,600.00
2023-05-11T03:47:26.938Z,601.00
2023-05-11T03:47:57.061Z,600.00
2023-05-11T03:48:27.052Z,604.00
2023-05-11T03:48:57.112Z,602.00
2023-05-11T03:49:27.193Z,604.00
2023-05-11T03:49:57.272Z,605.00
2023-05-11T03:50:27.369Z,602.00
2023-05-11T03:50:57.494Z,607.00
2023-05-11T03:51:27.480Z,604.00
2023-05-11T03:51:57.545Z,608.00
2023-05-11T03:52:27.652Z,608.00
2023-05-11T03:52:57.736Z,607.00
2023-05-11T03:53:27.813Z,605.00
2023-05-11T03:53:57.898Z,604.00
2023-05-11T03:54:27.981Z,605.00
2023-05-11T03:54:58.077Z,604.00
2023-05-11T03:55:28.161Z,603.00
2023-05-11T03:55:58.253Z,603.00
2023-05-11T03:56:28.344Z,601.00
2023-05-11T03:56:58.431Z,593.00
2023-05-11T03:57:28.519Z,589.00
2023-05-11T03:57:58.588Z,593.00
2023-05-11T03:58:28.684Z,596.00
2023-05-11T03:58:58.767Z,599.00
2023-05-11T03:59:28.846Z,597.00
2023-05-11T03:59:58.943Z,595.00
2023-05-11T04:00:29.035Z,590.00
2023-05-11T04:00:59.117Z,592.00
2023-05-11T04:01:29.214Z,594.00
2023-05-11T04:01:59.293Z,593.00
2023-05-11T04:02:29.545Z,598.00
2023-05-11T04:02:59.443Z,591.00
2023-05-11T04:03:29.600Z,596.00
2023-05-11T04:03:59.533Z,599.00
2023-05-11T04:04:29.534Z,598.00
2023-05-11T04:04:59.574Z,596.00
2023-05-11T04:05:29.666Z,598.00
2023-05-11T04:05:59.755Z,600.00
2023-05-11T04:06:29.847Z,599.00
2023-05-11T04:06:59.923Z,599.00
2023-05-11T04:07:29.998Z,597.00
2023-05-11T04:08:00.085Z,597.00
2023-05-11T04:08:30.179Z,600.00
2023-05-11T04:09:00.261Z,602.00
2023-05-11T04:09:30.358Z,603.00
2023-05-11T04:10:00.451Z,601.00
2023-05-11T04:10:30.541Z,597.00
2023-05-11T04:11:00.624Z,598.00
2023-05-11T04:11:30.705Z,599.00
2023-05-11T04:12:00.781Z,600.00
2023-05-11T04:12:30.867Z,603.00
2023-05-11T04:13:00.972Z,605.00
2023-05-11T04:13:31.039Z,602.00
2023-05-11T04:14:01.123Z,603.00
2023-05-11T04:14:31.218Z,604.00
2023-05-11T04:15:01.317Z,603.00
2023-05-11T04:15:31.415Z,604.00
2023-05-11T04:16:01.524Z,606.00
2023-05-11T04:16:31.565Z,607.00
2023-05-11T04:17:01.520Z,606.00
2023-05-11T04:17:31.615Z,611.00
2023-05-11T04:18:01.678Z,612.00
2023-05-11T04:18:31.826Z,610.00
2023-05-11T04:19:03.559Z,611.00
2023-05-11T04:20:01.783Z,609.00
2023-05-11T04:20:31.831Z,614.00
2023-05-11T04:21:01.879Z,609.00
2023-05-11T04:21:31.928Z,612.00
2023-05-11T04:22:01.948Z,614.00
2023-05-11T04:22:31.988Z,613.00
2023-05-11T04:23:02.041Z,617.00
2023-05-11T04:23:32.098Z,619.00
2023-05-11T04:24:02.150Z,619.00
2023-05-11T04:24:32.214Z,619.00
2023-05-11T04:25:02.237Z,619.00
2023-05-11T04:25:32.291Z,620.00
2023-05-11T04:26:02.341Z,618.00
2023-05-11T04:26:32.374Z,619.00
2023-05-11T04:27:02.459Z,618.00
2023-05-11T04:27:32.550Z,618.00
2023-05-11T04:28:02.633Z,618.00
2023-05-11T04:28:33.017Z,615.00
2023-05-11T04:29:02.764Z,617.00
2023-05-11T04:30:02.880Z,616.00
2023-05-11T04:30:32.981Z,615.00
2023-05-11T04:31:03.146Z,616.00
2023-05-11T04:31:33.147Z,618.00
2023-05-11T04:32:03.226Z,620.00
2023-05-11T04:32:33.390Z,621.00
2023-05-11T04:33:03.417Z,623.00
2023-05-11T04:33:33.422Z,621.00
2023-05-11T04:34:03.541Z,621.00
2023-05-11T04:34:33.609Z,622.00
2023-05-11T04:35:03.688Z,627.00
2023-05-11T04:35:33.775Z,631.00
2023-05-11T04:36:03.863Z,630.00
2023-05-11T04:36:33.960Z,629.00
2023-05-11T04:37:04.025Z,634.00
2023-05-11T04:37:34.124Z,635.00
2023-05-11T04:38:04.213Z,633.00
2023-05-11T04:38:34.226Z,635.00
2023-05-11T04:39:04.302Z,631.00
2023-05-11T04:39:34.404Z,635.00
2023-05-11T04:40:04.538Z,631.00
2023-05-11T04:40:35.129Z,633.00
2023-05-11T04:41:04.617Z,634.00
2023-05-11T04:41:34.703Z,631.00
2023-05-11T04:42:04.798Z,630.00
2023-05-11T04:42:34.882Z,626.00
2023-05-11T04:43:04.965Z,622.00
2023-05-11T04:43:35.064Z,619.00
2023-05-11T04:44:05.157Z,623.00
2023-05-11T04:44:35.239Z,630.00
2023-05-11T04:45:05.324Z,642.00
2023-05-11T04:45:35.413Z,647.00
2023-05-11T04:46:05.494Z,652.00
2023-05-11T04:46:35.615Z,657.00
2023-05-11T04:47:05.679Z,660.00
2023-05-11T04:47:35.690Z,663.00
2023-05-11T04:48:05.734Z,665.00
2023-05-11T04:48:35.698Z,664.00
2023-05-11T04:49:05.831Z,666.00
2023-05-11T04:49:35.930Z,669.00
2023-05-11T04:50:06.007Z,674.00
2023-05-11T04:50:36.092Z,676.00
2023-05-11T04:51:06.246Z,675.00
2023-05-11T04:51:36.205Z,676.00
2023-05-11T04:52:06.310Z,675.00
2023-05-11T04:52:36.326Z,672.00
2023-05-11T04:53:06.407Z,676.00
2023-05-11T04:53:36.495Z,675.00
2023-05-11T04:54:06.575Z,683.00
2023-05-11T04:54:36.670Z,687.00
2023-05-11T04:55:06.753Z,686.00
2023-05-11T04:55:36.841Z,686.00
2023-05-11T04:56:06.964Z,683.00
2023-05-11T04:56:37.052Z,686.00
2023-05-11T04:57:07.135Z,692.00
2023-05-11T04:57:37.213Z,700.00
2023-05-11T04:58:07.325Z,700.00
2023-05-11T04:58:37.390Z,701.00
2023-05-11T04:59:07.475Z,699.00
2023-05-11T04:59:37.624Z,700.00
2023-05-11T05:00:07.658Z,701.00
2023-05-11T05:00:37.652Z,700.00
2023-05-11T05:01:07.801Z,697.00
2023-05-11T05:01:37.932Z,696.00
2023-05-11T05:02:07.749Z,696.00
2023-05-11T05:02:37.865Z,696.00
2023-05-11T05:03:07.882Z,694.00
2023-05-11T05:03:37.898Z,715.00
2023-05-11T05:04:07.902Z,720.00
2023-05-11T05:04:37.897Z,728.00
2023-05-11T05:05:08.012Z,724.00
2023-05-11T05:05:38.093Z,726.00
2023-05-11T05:06:08.184Z,721.00
2023-05-11T05:06:38.274Z,715.00
2023-05-11T05:07:08.374Z,712.00
2023-05-11T05:07:38.463Z,710.00
2023-05-11T05:08:08.551Z,711.00
2023-05-11T05:08:38.640Z,707.00
2023-05-11T05:09:08.731Z,703.00
2023-05-11T05:09:38.809Z,710.00
2023-05-11T05:10:08.965Z,711.00
2023-05-11T05:10:38.988Z,713.00
2023-05-11T05:11:09.036Z,716.00
2023-05-11T05:11:39.138Z,720.00
2023-05-11T05:12:09.221Z,719.00
2023-05-11T05:12:39.318Z,716.00
2023-05-11T05:13:09.395Z,722.00
2023-05-11T05:13:39.497Z,724.00
2023-05-11T05:14:09.569Z,728.00
2023-05-11T05:14:39.615Z,729.00
2023-05-11T05:15:09.719Z,731.00
2023-05-11T05:15:39.797Z,732.00
2023-05-11T05:16:10.075Z,736.00
2023-05-11T05:16:39.929Z,738.00
2023-05-11T05:17:10.064Z,742.00
2023-05-11T05:17:40.024Z,743.00
2023-05-11T05:18:10.098Z,746.00
2023-05-11T05:18:40.188Z,744.00
2023-05-11T05:19:10.296Z,744.00
2023-05-11T05:19:40.327Z,739.00
2023-05-11T05:20:10.408Z,739.00
2023-05-11T05:20:40.436Z,735.00
2023-05-11T05:21:10.477Z,733.00
2023-05-11T05:21:40.526Z,731.00
2023-05-11T05:22:10.577Z,737.00
2023-05-11T05:22:40.629Z,738.00
2023-05-11T05:23:10.681Z,735.00
2023-05-11T05:23:40.711Z,729.00
2023-05-11T05:24:10.765Z,734.00
2023-05-11T05:24:40.824Z,732.00
2023-05-11T05:25:10.865Z,734.00
2023-05-11T05:25:40.898Z,732.00
2023-05-11T05:26:10.941Z,733.00
2023-05-11T05:26:41.005Z,736.00
2023-05-11T05:27:11.109Z,738.00
2023-05-11T05:27:41.168Z,739.00
2023-05-11T05:28:11.260Z,742.00
2023-05-11T05:28:41.348Z,744.00
2023-05-11T05:29:11.439Z,746.00
2023-05-11T05:29:41.438Z,747.00
2023-05-11T05:30:11.533Z,748.00
2023-05-11T05:30:41.643Z,750.00
2023-05-11T05:31:11.649Z,753.00
2023-05-11T05:31:41.622Z,751.00
2023-05-11T05:32:11.708Z,751.00
2023-05-11T05:32:41.826Z,751.00
2023-05-11T05:33:11.951Z,751.00
2023-05-11T05:33:41.961Z,751.00
2023-05-11T05:34:13.561Z,750.00
2023-05-11T05:34:42.100Z,751.00
2023-05-11T05:35:12.186Z,749.00
2023-05-11T05:35:42.315Z,750.00
2023-05-11T05:36:12.389Z,750.00
2023-05-11T05:36:42.477Z,752.00
2023-05-11T05:37:12.561Z,752.00
2023-05-11T05:37:42.679Z,749.00
2023-05-11T05:38:12.769Z,757.00
2023-05-11T05:38:42.834Z,750.00
2023-05-11T05:39:12.926Z,749.00
2023-05-11T05:39:43.028Z,762.00
2023-05-11T05:40:13.118Z,759.00
2023-05-11T05:40:43.183Z,749.00
2023-05-11T05:41:13.276Z,743.00
2023-05-11T05:41:43.377Z,739.00
2023-05-11T05:42:13.447Z,738.00
2023-05-11T05:42:43.545Z,736.00
2023-05-11T05:43:13.634Z,733.00
2023-05-11T05:43:43.734Z,736.00
2023-05-11T05:44:13.826Z,743.00
2023-05-11T05:44:43.903Z,744.00
2023-05-11T05:45:14.866Z,746.00
2023-05-11T05:45:44.072Z,748.00
2023-05-11T05:46:14.210Z,747.00
2023-05-11T05:46:44.209Z,750.00
2023-05-11T05:47:14.208Z,751.00
2023-05-11T05:47:44.330Z,759.00
2023-05-11T05:48:14.402Z,755.00
2023-05-11T05:48:44.482Z,759.00
2023-05-11T05:49:14.584Z,757.00
2023-05-11T05:49:44.667Z,755.00
2023-05-11T05:50:14.801Z,754.00
2023-05-11T05:50:44.782Z,754.00
2023-05-11T05:51:14.843Z,754.00
2023-05-11T05:51:44.933Z,750.00
2023-05-11T05:52:15.036Z,748.00
2023-05-11T05:52:45.118Z,750.00
2023-05-11T05:53:15.191Z,739.00
2023-05-11T05:53:45.276Z,739.00
2023-05-11T05:54:15.367Z,748.00
2023-05-11T05:54:45.455Z,777.00
2023-05-11T05:55:15.538Z,769.00
2023-05-11T05:55:45.629Z,767.00
2023-05-11T05:56:15.713Z,767.00
2023-05-11T05:56:45.827Z,767.00
2023-05-11T05:57:16.069Z,770.00
2023-05-11T05:57:45.949Z,772.00
2023-05-11T05:58:16.042Z,773.00
2023-05-11T05:58:46.127Z,772.00
2023-05-11T05:59:16.208Z,773.00
2023-05-11T05:59:46.273Z,774.00
2023-05-11T06:00:16.557Z,775.00
2023-05-11T06:00:46.389Z,774.00
2023-05-11T06:01:16.509Z,774.00
2023-05-11T06:01:46.483Z,776.00
2023-05-11T06:02:16.605Z,777.00
2023-05-11T06:02:46.740Z,778.00
2023-05-11T06:03:16.812Z,781.00
2023-05-11T06:03:46.969Z,782.00
2023-05-11T06:04:16.993Z,782.00
2023-05-11T06:04:46.980Z,782.00
2023-05-11T06:05:16.952Z,783.00
2023-05-11T06:05:47.037Z,783.00
2023-05-11T06:06:17.226Z,785.00
2023-05-11T06:06:47.162Z,790.00
2023-05-11T06:07:17.243Z,786.00
2023-05-11T06:07:57.909Z,786.00
2023-05-11T06:08:17.404Z,787.00
2023-05-11T06:08:47.509Z,789.00
2023-05-11T06:09:17.588Z,790.00
2023-05-11T06:09:47.669Z,790.00
2023-05-11T06:10:18.027Z,797.00
2023-05-11T06:10:47.820Z,798.00
2023-05-11T06:11:17.906Z,797.00
2023-05-11T06:11:47.980Z,797.00
2023-05-11T06:12:18.077Z,796.00
2023-05-11T06:12:48.162Z,795.00
2023-05-11T06:13:18.250Z,796.00
2023-05-11T06:13:48.333Z,794.00
2023-05-11T06:14:18.420Z,796.00
2023-05-11T06:14:48.509Z,794.00
2023-05-11T06:15:18.623Z,794.00
2023-05-11T06:15:48.748Z,799.00
2023-05-11T06:16:18.770Z,802.00